Aviation Digital Data Service (ADDS)

Output produced by METARs form (1121 UTC 15 July 2020)
found at http://www.aviationweather.gov/metar/data/
 
Forecast for: OEJN (JEDDAH/KING ABDU, SA)
Text: TAF OEJN 151100Z 1512/1618 35018KT CAVOK
Forecast period: 1200 to 1600 UTC 15 July 2020
Forecast type: FROM: standard forecast or significant change
Winds: from the N (350 degrees) at 21 MPH (18 knots; 9.3 m/s)
Visibility: 6 or more miles 10+ km)
Ceiling: unknown
Clouds: missing
Weather: NSW  (no significant weather)
Text: BECMG 1516/1518 05010KT
Forecast period: 1600 UTC 15 July 2020 to 1800 UTC 16 July 2020
Forecast type: BECOMING: Conditions expected to become as follows by 1800 UTC 15 July 2020
Winds: from the NE (50 degrees) at 12 MPH (10 knots; 5.1 m/s)
Visibility: 6 or more miles 10+ km)
Ceiling: unknown
Clouds: missing
Weather: NSW  (no significant weather)